createdAt,value
2018-10-06T00:00:02.967Z,0
2018-10-06T00:05:02.467Z,0
2018-10-06T00:10:03.213Z,0
2018-10-06T00:15:02.833Z,0
2018-10-06T00:20:02.541Z,0
2018-10-06T00:25:03.117Z,0
2018-10-06T00:30:02.679Z,0
2018-10-06T00:35:03.326Z,0
2018-10-06T00:40:03.067Z,0
2018-10-06T00:45:02.716Z,0
2018-10-06T00:50:03.289Z,0
2018-10-06T00:55:02.900Z,0
2018-10-06T01:00:02.538Z,0
2018-10-06T01:05:03.193Z,0
2018-10-06T01:10:02.868Z,0
2018-10-06T01:15:02.460Z,0
2018-10-06T01:20:03.110Z,0
2018-10-06T01:25:02.905Z,0
2018-10-06T01:30:02.598Z,0
2018-10-06T01:35:03.262Z,0
2018-10-06T01:40:02.920Z,0
2018-10-06T01:45:02.582Z,0
2018-10-06T01:50:03.401Z,0
2018-10-06T01:55:02.607Z,0
2018-10-06T02:00:03.314Z,0
2018-10-06T02:05:02.905Z,0
2018-10-06T02:10:02.573Z,0
2018-10-06T02:15:03.121Z,0
2018-10-06T02:20:02.708Z,0
2018-10-06T02:25:03.327Z,0
2018-10-06T02:30:03.301Z,0
2018-10-06T02:35:02.454Z,0
2018-10-06T02:40:03.175Z,0
2018-10-06T02:45:02.732Z,0
2018-10-06T02:50:03.331Z,0
2018-10-06T02:55:02.900Z,0
2018-10-06T03:00:02.493Z,0
2018-10-06T03:05:03.165Z,0
2018-10-06T03:10:02.793Z,0
2018-10-06T03:15:02.412Z,0
2018-10-06T03:20:03.029Z,0
2018-10-06T03:25:02.642Z,0
2018-10-06T03:30:03.218Z,0
2018-10-06T03:35:02.872Z,0
2018-10-06T03:40:02.555Z,0
2018-10-06T03:45:03.118Z,0
2018-10-06T03:50:02.796Z,0
2018-10-06T03:55:02.389Z,0
2018-10-06T04:00:03.058Z,0
2018-10-06T04:05:02.590Z,0
2018-10-06T04:10:03.250Z,0
2018-10-06T04:15:02.836Z,0
2018-10-06T04:20:03.405Z,0
2018-10-06T04:25:02.990Z,0
2018-10-06T04:30:03.228Z,0
2018-10-06T04:35:02.803Z,0
2018-10-06T04:40:02.462Z,0
2018-10-06T04:45:03.071Z,0
2018-10-06T04:50:02.927Z,0
2018-10-06T04:55:02.522Z,0
2018-10-06T05:00:03.590Z,0
2018-10-06T05:05:02.980Z,0
2018-10-06T05:10:03.142Z,1
2018-10-06T05:15:03.244Z,2
2018-10-06T05:20:02.912Z,7
2018-10-06T05:25:03.050Z,16
2018-10-06T05:30:03.036Z,25
2018-10-06T05:35:02.931Z,39
2018-10-06T05:40:02.663Z,59
2018-10-06T05:45:03.306Z,106
2018-10-06T05:50:02.894Z,287
2018-10-06T05:55:02.508Z,364
2018-10-06T06:00:03.137Z,461
2018-10-06T06:05:02.689Z,511
2018-10-06T06:10:02.731Z,571
2018-10-06T06:15:02.978Z,664
2018-10-06T06:20:02.601Z,727
2018-10-06T06:25:03.233Z,826
2018-10-06T06:30:03.007Z,902
2018-10-06T06:35:02.596Z,1000
2018-10-06T06:40:03.348Z,1000
2018-10-06T06:45:02.952Z,1000
2018-10-06T06:50:02.583Z,1000
2018-10-06T06:55:03.463Z,1000
2018-10-06T07:00:03.042Z,1000
2018-10-06T07:05:02.680Z,1000
2018-10-06T07:10:02.545Z,1000
2018-10-06T07:15:03.145Z,1000
2018-10-06T07:20:02.785Z,1000
2018-10-06T07:25:02.376Z,2000
2018-10-06T07:30:02.970Z,2000
2018-10-06T07:35:02.701Z,2000
2018-10-06T07:40:02.412Z,2000
2018-10-06T07:45:03.735Z,2000
2018-10-06T07:50:02.855Z,2000
2018-10-06T07:55:02.499Z,26000
2018-10-06T08:00:03.254Z,28000
2018-10-06T08:05:02.853Z,30000
2018-10-06T08:10:02.574Z,32000
2018-10-06T08:15:03.322Z,33000
2018-10-06T08:20:02.946Z,34000
2018-10-06T08:25:02.664Z,35000
2018-10-06T08:30:03.287Z,35000
2018-10-06T08:35:02.838Z,35000
2018-10-06T08:40:02.543Z,35000
2018-10-06T08:45:03.369Z,35000
2018-10-06T08:50:02.974Z,35000
2018-10-06T08:55:02.576Z,36000
2018-10-06T09:00:03.237Z,36000
2018-10-06T09:05:02.863Z,36000
2018-10-06T09:10:02.521Z,37000
2018-10-06T09:15:03.121Z,38000
2018-10-06T09:20:02.701Z,38000
2018-10-06T09:25:03.317Z,39000
2018-10-06T09:30:02.853Z,39000
2018-10-06T09:35:02.517Z,39000
2018-10-06T09:40:03.318Z,40000
2018-10-06T09:45:02.936Z,40000
2018-10-06T09:50:02.535Z,39000
2018-10-06T09:55:03.175Z,39000
2018-10-06T10:00:02.847Z,38000
2018-10-06T10:05:02.569Z,38000
2018-10-06T10:10:03.620Z,39000
2018-10-06T10:15:03.043Z,38000
2018-10-06T10:20:02.571Z,39000
2018-10-06T10:25:03.195Z,38000
2018-10-06T10:30:02.753Z,39000
2018-10-06T10:35:03.313Z,38000
2018-10-06T10:40:02.996Z,38000
2018-10-06T10:45:02.676Z,38000
2018-10-06T10:50:03.313Z,39000
2018-10-06T10:55:02.974Z,39000
2018-10-06T11:00:03.401Z,39000
2018-10-06T11:05:02.551Z,39000
2018-10-06T11:10:03.207Z,39000
2018-10-06T11:15:02.795Z,43000
2018-10-06T11:20:03.445Z,37000
2018-10-06T11:25:03.011Z,37000
2018-10-06T11:30:02.692Z,38000
2018-10-06T11:35:03.405Z,35000
2018-10-06T11:40:03.049Z,26000
2018-10-06T11:45:02.720Z,17000
2018-10-06T11:50:03.549Z,15000
2018-10-06T11:55:03.277Z,25000
2018-10-06T12:00:03.073Z,33000
2018-10-06T12:05:02.704Z,33000
2018-10-06T12:10:02.493Z,32000
2018-10-06T12:15:03.148Z,35000
2018-10-06T12:20:02.814Z,33000
2018-10-06T12:25:02.548Z,33000
2018-10-06T12:30:03.218Z,33000
2018-10-06T12:35:03.145Z,33000
2018-10-06T12:40:03.235Z,33000
2018-10-06T12:45:02.876Z,32000
2018-10-06T12:50:02.525Z,32000
2018-10-06T12:55:03.192Z,31000
2018-10-06T13:00:02.915Z,31000
2018-10-06T13:05:02.906Z,31000
2018-10-06T13:10:02.587Z,31000
2018-10-06T13:15:03.224Z,30000
2018-10-06T13:20:03.057Z,29000
2018-10-06T13:25:02.655Z,28000
2018-10-06T13:30:03.310Z,27000
2018-10-06T13:35:02.944Z,24000
2018-10-06T13:40:02.695Z,24000
2018-10-06T13:45:03.385Z,25000
2018-10-06T13:50:02.950Z,23000
2018-10-06T13:55:02.618Z,20000
2018-10-06T14:00:03.150Z,22000
2018-10-06T14:05:02.738Z,22000
2018-10-06T14:10:02.442Z,18000
2018-10-06T14:15:03.116Z,25000
2018-10-06T14:20:02.940Z,5000
2018-10-06T14:25:02.584Z,12000
2018-10-06T14:30:03.160Z,14000
2018-10-06T14:35:02.753Z,4000
2018-10-06T14:40:02.515Z,11000
2018-10-06T14:45:03.185Z,4000
2018-10-06T14:50:02.881Z,3000
2018-10-06T14:55:02.899Z,3000
2018-10-06T15:00:02.501Z,3000
2018-10-06T15:05:03.165Z,3000
2018-10-06T15:10:03.045Z,3000
2018-10-06T15:15:02.734Z,8000
2018-10-06T15:20:02.458Z,2000
2018-10-06T15:25:03.088Z,1000
2018-10-06T15:30:02.683Z,11000
2018-10-06T15:35:03.423Z,12000
2018-10-06T15:40:03.023Z,12000
2018-10-06T15:45:02.739Z,10000
2018-10-06T15:50:02.356Z,10000
2018-10-06T15:55:02.911Z,9000
2018-10-06T16:00:02.494Z,2000
2018-10-06T16:05:03.180Z,1000
2018-10-06T16:15:02.746Z,1000
2018-10-06T16:20:02.452Z,1000
2018-10-06T16:25:03.041Z,1000
2018-10-06T16:30:02.674Z,890
2018-10-06T16:40:03.361Z,508
2018-10-06T16:45:03.017Z,377
2018-10-06T16:50:02.570Z,263
2018-10-06T16:55:03.103Z,131
2018-10-06T17:00:02.854Z,82
2018-10-06T17:05:02.608Z,66
2018-10-06T17:10:03.344Z,56
2018-10-06T17:15:02.993Z,41
2018-10-06T17:20:02.673Z,26
2018-10-06T17:25:03.455Z,14
2018-10-06T17:30:02.581Z,6
2018-10-06T17:35:03.236Z,2
2018-10-06T17:40:02.962Z,1
2018-10-06T17:45:02.679Z,0
2018-10-06T17:50:03.601Z,0
2018-10-06T17:55:02.570Z,0
2018-10-06T18:00:03.166Z,0
2018-10-06T18:05:03.070Z,0
2018-10-06T18:10:02.863Z,0
2018-10-06T18:15:02.533Z,0
2018-10-06T18:20:03.504Z,0
2018-10-06T18:25:02.471Z,0
2018-10-06T18:30:03.107Z,0
2018-10-06T18:35:02.780Z,0
2018-10-06T18:40:02.472Z,0
2018-10-06T18:45:03.191Z,0
2018-10-06T18:50:02.709Z,0
2018-10-06T18:55:03.426Z,0
2018-10-06T19:00:03.038Z,0
2018-10-06T19:05:02.880Z,0
2018-10-06T19:10:02.634Z,0
2018-10-06T19:15:02.872Z,0
2018-10-06T19:20:02.773Z,0
2018-10-06T19:25:02.390Z,0
2018-10-06T19:30:03.051Z,0
2018-10-06T19:35:02.636Z,0
2018-10-06T19:40:03.381Z,0
2018-10-06T19:45:03.050Z,0
2018-10-06T19:50:02.724Z,0
2018-10-06T19:55:03.311Z,0
2018-10-06T20:00:03.178Z,0
2018-10-06T20:05:02.937Z,0
2018-10-06T20:10:02.634Z,0
2018-10-06T20:15:03.216Z,0
2018-10-06T20:20:02.884Z,0
2018-10-06T20:25:02.584Z,0
2018-10-06T20:30:03.215Z,0
2018-10-06T20:35:02.848Z,0
2018-10-06T20:40:02.610Z,0
2018-10-06T20:45:03.749Z,0
2018-10-06T20:50:02.382Z,0
2018-10-06T20:55:02.919Z,0
2018-10-06T21:00:02.463Z,0
2018-10-06T21:05:03.155Z,0
2018-10-06T21:10:02.913Z,0
2018-10-06T21:15:02.491Z,0
2018-10-06T21:20:03.186Z,0
2018-10-06T21:25:02.849Z,0
2018-10-06T21:30:02.483Z,0
2018-10-06T21:35:03.193Z,0
2018-10-06T21:40:02.916Z,0
2018-10-06T21:45:02.516Z,0
2018-10-06T21:50:03.115Z,0
2018-10-06T21:55:02.734Z,0
2018-10-06T22:00:03.322Z,0
2018-10-06T22:05:03.239Z,0
2018-10-06T22:10:02.997Z,0
2018-10-06T22:15:02.809Z,0
2018-10-06T22:20:02.583Z,0
2018-10-06T22:25:03.292Z,0
2018-10-06T22:30:02.797Z,0
2018-10-06T22:35:02.535Z,0
2018-10-06T22:40:03.230Z,0
2018-10-06T22:45:02.829Z,0
2018-10-06T22:50:02.775Z,0
2018-10-06T22:55:02.407Z,0
2018-10-06T23:00:03.022Z,0
2018-10-06T23:05:02.545Z,0
2018-10-06T23:10:03.251Z,0
2018-10-06T23:15:02.897Z,0
2018-10-06T23:20:02.560Z,0
2018-10-06T23:25:03.235Z,0
2018-10-06T23:30:02.779Z,0
2018-10-06T23:35:02.462Z,0
2018-10-06T23:40:03.161Z,0
2018-10-06T23:45:02.806Z,0
2018-10-06T23:50:02.417Z,0
2018-10-06T23:55:03.006Z,0
